createdAt,value
2023-01-19T00:00:12.134Z,99456.38
2023-01-19T00:03:04.454Z,99458.90
2023-01-19T00:05:48.052Z,99464.71
2023-01-19T00:08:39.434Z,99464.52
2023-01-19T00:11:30.130Z,99465.23
2023-01-19T00:14:20.926Z,99466.58
2023-01-19T00:17:11.785Z,99467.80
2023-01-19T00:19:53.152Z,99464.87
2023-01-19T00:22:43.778Z,99465.36
2023-01-19T00:25:34.739Z,99467.77
2023-01-19T00:28:25.411Z,99469.69
2023-01-19T00:31:16.361Z,99469.72
2023-01-19T00:33:55.653Z,99473.51
2023-01-19T00:36:46.468Z,99474.21
2023-01-19T00:39:37.346Z,99476.10
2023-01-19T00:42:45.074Z,99480.93
2023-01-19T00:45:28.877Z,99483.16
2023-01-19T00:48:19.626Z,99487.13
2023-01-19T00:51:10.454Z,99483.18
2023-01-19T00:54:05.001Z,99488.02
2023-01-19T00:56:55.738Z,99487.99
2023-01-19T00:59:46.615Z,99491.77
2023-01-19T01:02:37.630Z,99489.63
2023-01-19T01:05:28.590Z,99492.11
2023-01-19T01:08:19.169Z,99499.17
2023-01-19T01:11:09.915Z,99497.86
2023-01-19T01:14:00.572Z,99498.48
2023-01-19T01:16:40.642Z,99498.63
2023-01-19T01:19:11.586Z,99503.78
2023-01-19T01:22:01.326Z,99502.38
2023-01-19T01:24:52.018Z,99505.12
2023-01-19T01:27:43.377Z,99504.59
2023-01-19T01:30:34.093Z,99508.58
2023-01-19T01:33:40.009Z,99507.21
2023-01-19T01:36:33.507Z,99505.50
2023-01-19T01:39:24.529Z,99511.57
2023-01-19T01:42:20.915Z,99514.53
2023-01-19T01:45:30.031Z,99506.48
2023-01-19T01:48:15.153Z,99510.05
2023-01-19T01:51:21.122Z,99505.75
2023-01-19T01:54:18.264Z,99503.98
2023-01-19T01:56:52.428Z,99508.46
2023-01-19T01:59:47.730Z,99512.11
2023-01-19T02:02:40.193Z,99517.31
2023-01-19T02:05:22.475Z,99519.89
2023-01-19T02:08:26.911Z,99514.01
2023-01-19T02:11:27.586Z,99514.36
2023-01-19T02:13:58.186Z,99515.92
2023-01-19T02:16:39.389Z,99512.45
2023-01-19T02:19:36.993Z,99515.09
2023-01-19T02:22:25.908Z,99516.02
2023-01-19T02:24:59.796Z,99515.54
2023-01-19T02:27:30.443Z,99516.02
2023-01-19T02:30:21.742Z,99513.94
2023-01-19T02:33:12.443Z,99512.33
2023-01-19T02:36:03.367Z,99505.89
2023-01-19T02:38:45.789Z,99506.55
2023-01-19T02:41:31.844Z,99506.81
2023-01-19T02:44:24.890Z,99504.69
2023-01-19T02:47:15.827Z,99502.59
2023-01-19T02:50:01.758Z,99498.77
2023-01-19T02:52:56.963Z,99499.05
2023-01-19T02:55:54.593Z,99501.09
2023-01-19T02:58:51.312Z,99499.14
2023-01-19T03:02:01.889Z,99499.99
2023-01-19T03:05:09.355Z,99501.56
2023-01-19T03:08:09.469Z,99503.66
2023-01-19T03:11:00.442Z,99504.54
2023-01-19T03:13:55.526Z,99503.18
2023-01-19T03:16:48.981Z,99509.09
2023-01-19T03:19:37.555Z,99516.17
2023-01-19T03:22:30.561Z,99514.09
2023-01-19T03:25:23.884Z,99513.55
2023-01-19T03:28:07.957Z,99514.73
2023-01-19T03:31:03.883Z,99516.08
2023-01-19T03:33:48.810Z,99514.31
2023-01-19T03:36:43.291Z,99517.23
2023-01-19T03:39:35.224Z,99519.27
2023-01-19T03:42:21.376Z,99520.61
2023-01-19T03:45:15.239Z,99517.48
2023-01-19T03:48:07.326Z,99520.57
2023-01-19T03:50:58.203Z,99524.18
2023-01-19T03:53:49.961Z,99528.64
2023-01-19T03:56:40.637Z,99536.59
2023-01-19T03:59:31.297Z,99540.73
2023-01-19T04:02:22.389Z,99540.53
2023-01-19T04:05:14.462Z,99541.69
2023-01-19T04:08:05.270Z,99541.51
2023-01-19T04:10:38.920Z,99539.27
2023-01-19T04:13:09.347Z,99544.77
2023-01-19T04:16:03.785Z,99545.77
2023-01-19T04:18:54.649Z,99543.48
2023-01-19T04:21:28.458Z,99528.30
2023-01-19T04:24:01.620Z,99520.02
2023-01-19T04:26:42.251Z,99525.94
2023-01-19T04:29:32.758Z,99530.84
2023-01-19T04:32:23.417Z,99534.23
2023-01-19T04:35:14.068Z,99533.77
2023-01-19T04:37:57.548Z,99536.45
2023-01-19T04:40:49.911Z,99537.66
2023-01-19T04:43:40.992Z,99542.40
2023-01-19T04:46:31.870Z,99539.31
2023-01-19T04:49:22.947Z,99540.23
2023-01-19T04:52:13.653Z,99537.50
2023-01-19T04:55:05.010Z,99540.98
2023-01-19T04:57:56.039Z,99542.23
2023-01-19T05:00:37.606Z,99543.80
2023-01-19T05:03:28.420Z,99545.73
2023-01-19T05:06:12.796Z,99548.70
2023-01-19T05:09:03.608Z,99553.15
2023-01-19T05:11:54.310Z,99556.58
2023-01-19T05:14:27.992Z,99554.13
2023-01-19T05:17:18.641Z,99558.42
2023-01-19T05:20:15.716Z,99555.45
2023-01-19T05:23:07.121Z,99561.83
2023-01-19T05:26:00.755Z,99561.64
2023-01-19T05:28:51.435Z,99559.91
2023-01-19T05:31:42.180Z,99557.31
2023-01-19T05:34:25.709Z,99564.41
2023-01-19T05:37:16.457Z,99566.02
2023-01-19T05:40:09.570Z,99567.98
2023-01-19T05:42:49.590Z,99569.06
2023-01-19T05:45:41.097Z,99564.05
2023-01-19T05:48:30.259Z,99564.23
2023-01-19T05:51:21.028Z,99566.80
2023-01-19T05:54:13.332Z,99565.77
2023-01-19T05:57:04.889Z,99564.39
2023-01-19T05:59:44.905Z,99562.52
2023-01-19T06:02:35.650Z,99560.15
2023-01-19T06:05:10.056Z,99560.38
2023-01-19T06:07:48.657Z,99562.52
2023-01-19T06:10:35.647Z,99559.27
2023-01-19T06:13:06.259Z,99559.66
2023-01-19T06:15:37.551Z,99559.70
2023-01-19T06:18:11.093Z,99561.46
2023-01-19T06:20:47.170Z,99562.89
2023-01-19T06:23:30.407Z,99571.54
2023-01-19T06:26:14.255Z,99572.23
2023-01-19T06:29:05.153Z,99581.05
2023-01-19T06:31:46.814Z,99587.61
2023-01-19T06:34:38.509Z,99592.30
2023-01-19T06:37:30.729Z,99596.72
2023-01-19T06:40:21.683Z,99599.08
2023-01-19T06:43:12.986Z,99603.48
2023-01-19T06:46:04.973Z,99607.52
2023-01-19T06:48:55.998Z,99612.93
2023-01-19T06:51:46.623Z,99611.42
2023-01-19T06:54:37.299Z,99610.27
2023-01-19T06:57:21.387Z,99614.86
2023-01-19T07:00:14.845Z,99617.56
2023-01-19T07:03:06.683Z,99616.80
2023-01-19T07:05:49.939Z,99619.32
2023-01-19T07:08:20.321Z,99624.09
2023-01-19T07:11:25.849Z,99626.97
2023-01-19T07:13:51.463Z,99626.54
2023-01-19T07:16:33.340Z,99625.05
2023-01-19T07:19:24.373Z,99627.09
2023-01-19T07:22:04.956Z,99624.98
2023-01-19T07:24:35.729Z,99620.60
2023-01-19T07:27:28.698Z,99621.40
2023-01-19T07:30:18.759Z,99619.80
2023-01-19T07:33:09.598Z,99626.30
2023-01-19T07:36:00.397Z,99632.30
2023-01-19T07:38:51.206Z,99635.02
2023-01-19T07:41:42.005Z,99637.71
2023-01-19T07:44:32.911Z,99637.85
2023-01-19T07:47:23.713Z,99641.61
2023-01-19T07:50:16.018Z,99645.73
2023-01-19T07:53:12.030Z,99645.17
2023-01-19T07:55:58.229Z,99648.42
2023-01-19T07:58:41.969Z,99650.65
2023-01-19T08:01:32.881Z,99655.65
2023-01-19T08:04:23.934Z,99663.25
2023-01-19T08:07:15.198Z,99670.31
2023-01-19T08:10:06.646Z,99673.61
2023-01-19T08:12:56.159Z,99675.35
2023-01-19T08:15:49.804Z,99682.83
2023-01-19T08:18:40.789Z,99680.08
2023-01-19T08:21:33.459Z,99680.26
2023-01-19T08:24:21.389Z,99680.62
2023-01-19T08:27:12.293Z,99684.23
2023-01-19T08:30:03.660Z,99684.05
2023-01-19T08:32:58.212Z,99680.91
2023-01-19T08:35:51.744Z,99678.98
2023-01-19T08:38:44.756Z,99678.98
2023-01-19T08:41:35.518Z,99676.54
2023-01-19T08:44:25.991Z,99677.22
2023-01-19T08:47:08.482Z,99679.27
2023-01-19T08:49:59.312Z,99673.66
2023-01-19T08:52:50.299Z,99674.63
2023-01-19T08:55:32.331Z,99673.16
2023-01-19T08:58:06.291Z,99676.36
2023-01-19T09:00:57.158Z,99678.48
2023-01-19T09:03:47.979Z,99672.48
2023-01-19T09:06:38.889Z,99671.46
2023-01-19T09:09:29.735Z,99675.27
2023-01-19T09:12:20.569Z,99676.69
2023-01-19T09:15:12.395Z,99681.94
2023-01-19T09:18:03.453Z,99684.30
2023-01-19T09:21:02.216Z,99681.82
2023-01-19T09:23:36.501Z,99683.02
2023-01-19T09:26:27.225Z,99681.95
2023-01-19T09:29:16.960Z,99681.58
2023-01-19T09:31:58.670Z,99684.09
2023-01-19T09:34:49.562Z,99687.27
2023-01-19T09:37:40.399Z,99685.52
2023-01-19T09:40:31.041Z,99683.58
2023-01-19T09:43:36.977Z,99682.84
2023-01-19T09:46:24.530Z,99684.66
2023-01-19T09:49:11.270Z,99681.30
2023-01-19T09:51:55.094Z,99677.12
2023-01-19T09:54:52.892Z,99680.05
2023-01-19T09:57:45.131Z,99671.17
2023-01-19T10:00:36.340Z,99671.75
2023-01-19T10:03:27.380Z,99672.04
2023-01-19T10:06:19.069Z,99672.98
2023-01-19T10:08:58.086Z,99672.38
2023-01-19T10:11:53.098Z,99674.26
2023-01-19T10:14:50.701Z,99674.80
2023-01-19T10:17:56.679Z,99681.38
2023-01-19T10:20:51.140Z,99687.14
2023-01-19T10:23:45.833Z,99688.92
2023-01-19T10:26:38.708Z,99687.91
2023-01-19T10:29:35.413Z,99688.45
2023-01-19T10:32:28.109Z,99688.48
2023-01-19T10:35:24.548Z,99690.48
2023-01-19T10:38:22.284Z,99686.01
2023-01-19T10:41:19.373Z,99683.42
2023-01-19T10:44:12.144Z,99682.82
2023-01-19T10:47:03.363Z,99685.27
2023-01-19T10:49:48.295Z,99687.98
2023-01-19T10:52:37.216Z,99690.12
2023-01-19T10:55:24.776Z,99692.31
2023-01-19T10:58:30.182Z,99690.28
2023-01-19T11:01:19.150Z,99690.66
2023-01-19T11:04:29.780Z,99687.41
2023-01-19T11:07:24.343Z,99685.33
2023-01-19T11:10:24.046Z,99690.01
2023-01-19T11:13:16.649Z,99684.39
2023-01-19T11:15:59.622Z,99682.10
2023-01-19T11:18:55.778Z,99683.21
2023-01-19T11:21:36.171Z,99686.23
2023-01-19T11:24:25.764Z,99687.56
2023-01-19T11:27:18.882Z,99685.23
2023-01-19T11:30:19.131Z,99682.96
2023-01-19T11:32:50.241Z,99681.93
2023-01-19T11:35:43.233Z,99682.59
2023-01-19T11:38:27.098Z,99682.91
2023-01-19T11:41:22.275Z,99680.16
2023-01-19T11:44:21.123Z,99679.77
2023-01-19T11:47:19.681Z,99674.83
2023-01-19T11:50:07.324Z,99673.63
2023-01-19T11:53:05.686Z,99671.70
2023-01-19T11:55:58.807Z,99667.13
2023-01-19T11:58:34.245Z,99668.11
2023-01-19T12:01:30.409Z,99665.20
2023-01-19T12:04:27.590Z,99666.30
2023-01-19T12:07:30.602Z,99667.34
2023-01-19T12:10:25.538Z,99670.48
2023-01-19T12:13:00.116Z,99668.27
2023-01-19T12:15:51.513Z,99665.88
2023-01-19T12:18:47.273Z,99666.36
2023-01-19T12:21:38.544Z,99662.39
2023-01-19T12:24:24.656Z,99659.29
2023-01-19T12:27:23.702Z,99657.95
2023-01-19T12:30:21.118Z,99655.77
2023-01-19T12:33:34.639Z,99652.33
2023-01-19T12:36:41.629Z,99651.88
2023-01-19T12:39:26.521Z,99653.99
2023-01-19T12:42:21.271Z,99650.52
2023-01-19T12:45:18.394Z,99648.95
2023-01-19T12:47:59.253Z,99642.70
2023-01-19T12:50:40.616Z,99638.81
2023-01-19T12:53:31.795Z,99639.46
2023-01-19T12:56:31.185Z,99639.91
2023-01-19T12:59:29.177Z,99643.59
2023-01-19T13:02:46.563Z,99644.35
2023-01-19T13:06:00.012Z,99647.91
2023-01-19T13:09:02.016Z,99645.30
2023-01-19T13:12:23.707Z,99643.73
2023-01-19T13:15:35.624Z,99640.83
2023-01-19T13:18:29.539Z,99640.80
2023-01-19T13:21:30.440Z,99643.29
2023-01-19T13:24:23.382Z,99643.46
2023-01-19T13:27:15.025Z,99646.93
2023-01-19T13:29:57.741Z,99648.00
2023-01-19T13:32:48.066Z,99648.02
2023-01-19T13:35:39.003Z,99647.45
2023-01-19T13:38:32.865Z,99647.25
2023-01-19T13:41:20.108Z,99647.89
2023-01-19T13:44:14.918Z,99652.85
2023-01-19T13:47:09.184Z,99655.17
2023-01-19T13:50:02.229Z,99654.38
2023-01-19T13:52:46.230Z,99657.68
2023-01-19T13:55:37.106Z,99657.81
2023-01-19T13:58:26.248Z,99655.11
2023-01-19T14:01:29.000Z,99654.88
2023-01-19T14:04:32.022Z,99661.10
2023-01-19T14:07:26.437Z,99661.33
2023-01-19T14:10:18.523Z,99659.70
2023-01-19T14:13:17.403Z,99663.15
2023-01-19T14:16:02.876Z,99668.03
2023-01-19T14:19:04.778Z,99667.65
2023-01-19T14:22:03.556Z,99672.36
2023-01-19T14:24:54.586Z,99676.67
2023-01-19T14:27:45.314Z,99676.56
2023-01-19T14:30:36.907Z,99677.44
2023-01-19T14:33:35.733Z,99672.91
2023-01-19T14:36:30.720Z,99677.23
2023-01-19T14:39:26.312Z,99679.77
2023-01-19T14:42:19.718Z,99680.05
2023-01-19T14:45:01.152Z,99680.34
2023-01-19T14:47:44.717Z,99683.40
2023-01-19T14:50:38.689Z,99684.56
2023-01-19T14:53:29.971Z,99685.91
2023-01-19T14:56:29.873Z,99683.60
2023-01-19T15:00:07.195Z,99685.63
2023-01-19T15:03:46.105Z,99694.38
2023-01-19T15:06:28.247Z,99696.27
2023-01-19T15:09:19.090Z,99694.48
2023-01-19T15:12:17.356Z,99700.42
2023-01-19T15:15:16.783Z,99699.13
2023-01-19T15:18:13.107Z,99699.38
2023-01-19T15:20:53.222Z,99702.42
2023-01-19T15:23:35.320Z,99699.90
2023-01-19T15:26:14.867Z,99701.68
2023-01-19T15:28:58.582Z,99700.34
2023-01-19T15:31:40.295Z,99697.85
2023-01-19T15:34:31.692Z,99704.80
2023-01-19T15:37:05.448Z,99708.36
2023-01-19T15:39:46.204Z,99709.46
2023-01-19T15:42:36.826Z,99703.58
2023-01-19T15:45:39.777Z,99709.95
2023-01-19T15:48:30.932Z,99707.27
2023-01-19T15:51:05.541Z,99707.21
2023-01-19T15:53:56.673Z,99711.16
2023-01-19T15:56:47.496Z,99711.68
2023-01-19T16:00:27.037Z,99716.74
2023-01-19T16:02:58.299Z,99714.52
2023-01-19T16:05:49.372Z,99720.43
2023-01-19T16:08:34.151Z,99720.80
2023-01-19T16:11:25.187Z,99729.09
2023-01-19T16:13:55.989Z,99731.86
2023-01-19T16:16:46.989Z,99739.10
2023-01-19T16:19:48.017Z,99737.14
2023-01-19T16:22:27.812Z,99739.33
2023-01-19T16:25:02.050Z,99740.97
2023-01-19T16:27:45.707Z,99743.49
2023-01-19T16:30:20.398Z,99749.60
2023-01-19T16:33:01.562Z,99749.38
2023-01-19T16:35:52.560Z,99750.77
2023-01-19T16:38:43.418Z,99750.85
2023-01-19T16:41:24.450Z,99752.48
2023-01-19T16:44:17.428Z,99757.55
2023-01-19T16:47:08.436Z,99751.88
2023-01-19T16:49:59.298Z,99752.09
2023-01-19T16:52:50.653Z,99753.67
2023-01-19T16:55:43.788Z,99755.98
2023-01-19T16:58:37.525Z,99755.84
2023-01-19T17:01:29.981Z,99755.33
2023-01-19T17:04:21.563Z,99757.28
2023-01-19T17:07:11.272Z,99753.14
2023-01-19T17:09:44.276Z,99758.36
2023-01-19T17:12:26.363Z,99759.42
2023-01-19T17:15:08.919Z,99759.25
2023-01-19T17:17:59.973Z,99762.25
2023-01-19T17:20:50.926Z,99762.82
2023-01-19T17:23:45.726Z,99760.39
2023-01-19T17:26:37.076Z,99761.81
2023-01-19T17:29:27.063Z,99761.36
2023-01-19T17:32:08.328Z,99765.02
2023-01-19T17:34:59.041Z,99768.86
2023-01-19T17:37:53.383Z,99772.02
2023-01-19T17:40:35.188Z,99773.27
2023-01-19T17:43:26.149Z,99773.64
2023-01-19T17:46:17.615Z,99774.02
2023-01-19T17:49:09.743Z,99773.55
2023-01-19T17:51:43.205Z,99775.63
2023-01-19T17:54:34.100Z,99774.47
2023-01-19T17:57:24.919Z,99772.06
2023-01-19T18:00:17.713Z,99772.59
2023-01-19T18:03:08.514Z,99778.14
2023-01-19T18:05:56.887Z,99785.29
2023-01-19T18:08:49.002Z,99787.55
2023-01-19T18:11:34.028Z,99787.74
2023-01-19T18:14:15.193Z,99791.20
2023-01-19T18:17:06.010Z,99788.98
2023-01-19T18:19:56.860Z,99792.13
2023-01-19T18:22:47.837Z,99792.84
2023-01-19T18:25:29.577Z,99794.58
2023-01-19T18:28:13.057Z,99790.26
2023-01-19T18:31:07.323Z,99790.10
2023-01-19T18:33:48.706Z,99789.57
2023-01-19T18:36:38.301Z,99788.02
2023-01-19T18:39:20.243Z,99792.86
2023-01-19T18:42:11.434Z,99793.37
2023-01-19T18:45:02.412Z,99791.28
2023-01-19T18:47:36.624Z,99797.33
2023-01-19T18:50:06.141Z,99797.14
2023-01-19T18:52:57.835Z,99798.70
2023-01-19T18:55:37.484Z,99798.20
2023-01-19T18:58:29.239Z,99799.27
2023-01-19T19:01:31.496Z,99798.44
2023-01-19T19:04:23.568Z,99799.66
2023-01-19T19:07:03.169Z,99796.74
2023-01-19T19:09:47.948Z,99801.09
2023-01-19T19:12:32.785Z,99802.84
2023-01-19T19:15:03.452Z,99799.73
2023-01-19T19:17:45.437Z,99801.94
2023-01-19T19:20:38.387Z,99801.05
2023-01-19T19:23:12.776Z,99805.54
2023-01-19T19:26:08.087Z,99808.29
2023-01-19T19:28:59.532Z,99808.10
2023-01-19T19:31:52.472Z,99808.76
2023-01-19T19:34:34.119Z,99808.25
2023-01-19T19:37:24.952Z,99808.93
2023-01-19T19:40:16.287Z,99809.42
2023-01-19T19:43:07.179Z,99806.15
2023-01-19T19:46:02.442Z,99811.34
2023-01-19T19:49:21.437Z,99815.33
2023-01-19T19:52:05.101Z,99816.72
2023-01-19T19:54:56.163Z,99818.47
2023-01-19T19:57:47.644Z,99820.55
2023-01-19T20:00:32.712Z,99816.55
2023-01-19T20:03:26.563Z,99817.23
2023-01-19T20:06:05.541Z,99818.27
2023-01-19T20:08:52.208Z,99820.51
2023-01-19T20:11:44.157Z,99821.02
2023-01-19T20:14:33.763Z,99823.77
2023-01-19T20:17:24.938Z,99826.23
2023-01-19T20:19:55.656Z,99825.38
2023-01-19T20:22:36.752Z,99825.75
2023-01-19T20:25:09.111Z,99828.53
2023-01-19T20:27:39.981Z,99828.55
2023-01-19T20:30:14.567Z,99829.10
2023-01-19T20:32:48.239Z,99834.14
2023-01-19T20:35:39.334Z,99831.73
2023-01-19T20:38:30.163Z,99829.71
2023-01-19T20:41:22.214Z,99828.86
2023-01-19T20:44:14.985Z,99834.62
2023-01-19T20:46:56.925Z,99835.53
2023-01-19T20:49:47.823Z,99832.96
2023-01-19T20:52:18.416Z,99835.78
2023-01-19T20:54:48.967Z,99838.07
2023-01-19T20:57:22.945Z,99839.33
2023-01-19T21:00:09.437Z,99837.29
2023-01-19T21:02:49.304Z,99840.27
2023-01-19T21:05:19.935Z,99843.77
2023-01-19T21:08:10.865Z,99843.44
2023-01-19T21:11:01.748Z,99846.61
2023-01-19T21:13:56.048Z,99846.64
2023-01-19T21:16:30.301Z,99846.84
2023-01-19T21:19:04.643Z,99848.23
2023-01-19T21:21:56.314Z,99847.58
2023-01-19T21:24:47.047Z,99852.61
2023-01-19T21:27:30.494Z,99856.59
2023-01-19T21:30:22.485Z,99856.08
2023-01-19T21:33:13.726Z,99857.29
2023-01-19T21:35:52.562Z,99858.15
2023-01-19T21:38:43.398Z,99864.02
2023-01-19T21:41:36.106Z,99863.84
2023-01-19T21:44:26.810Z,99859.48
2023-01-19T21:47:02.284Z,99863.10
2023-01-19T21:49:53.418Z,99863.93
2023-01-19T21:52:37.239Z,99867.20
2023-01-19T21:55:28.331Z,99864.41
2023-01-19T21:58:01.460Z,99872.38
2023-01-19T22:00:52.333Z,99874.30
2023-01-19T22:03:43.411Z,99877.94
2023-01-19T22:06:24.235Z,99885.90
2023-01-19T22:08:55.545Z,99884.69
2023-01-19T22:11:37.198Z,99890.56
2023-01-19T22:14:21.533Z,99892.48
2023-01-19T22:17:12.423Z,99895.08
2023-01-19T22:20:03.170Z,99896.46
2023-01-19T22:22:46.438Z,99899.73
2023-01-19T22:25:37.169Z,99903.18
2023-01-19T22:28:08.547Z,99904.92
2023-01-19T22:30:39.372Z,99904.73
2023-01-19T22:33:22.602Z,99906.51
2023-01-19T22:35:55.967Z,99906.32
2023-01-19T22:38:26.359Z,99906.68
2023-01-19T22:41:22.158Z,99908.41
2023-01-19T22:43:55.320Z,99912.08
2023-01-19T22:46:27.656Z,99910.33
2023-01-19T22:49:19.297Z,99912.59
2023-01-19T22:51:48.286Z,99912.77
2023-01-19T22:54:38.320Z,99912.23
2023-01-19T22:57:28.875Z,99910.33
2023-01-19T23:00:16.064Z,99915.00
2023-01-19T23:02:56.840Z,99915.00
2023-01-19T23:05:27.415Z,99914.66
2023-01-19T23:08:08.763Z,99912.76
2023-01-19T23:10:59.476Z,99912.74
2023-01-19T23:13:44.637Z,99913.95
2023-01-19T23:16:33.865Z,99913.27
2023-01-19T23:19:04.925Z,99911.69
2023-01-19T23:21:37.006Z,99915.52
2023-01-19T23:24:27.810Z,99915.86
2023-01-19T23:27:11.883Z,99916.02
2023-01-19T23:29:56.082Z,99914.98
2023-01-19T23:32:39.735Z,99916.55
2023-01-19T23:35:11.786Z,99919.84
2023-01-19T23:38:02.700Z,99918.10
2023-01-19T23:40:53.303Z,99922.95
2023-01-19T23:43:44.140Z,99928.14
2023-01-19T23:46:16.354Z,99927.80
2023-01-19T23:49:07.235Z,99928.15
2023-01-19T23:51:41.871Z,99929.36
2023-01-19T23:54:23.272Z,99930.59
2023-01-19T23:57:14.135Z,99931.30
2023-01-19T23:59:54.949Z,99933.75
